Airfield :
LOGIN :

Register | Disclaimer

   EN    FR    IT 

 










Legend :    VFR   Marginal VFR   IFR   Intensive IFR   Very Intensive IFR
Visi :
Ceiling :
>= 8 km
>= 3000ft
5 to 8 km
1000 to 3000 ft
1500m to 5 km
500 to 1000 ft
800 to 1500m
200 to 500 ft
< 800m
< 200 ft
Symbols :   Thunderstorms  Fog  Heavy snow  Heavy precipitations  Wind > 20 kt
SIGMETs :     Misc.  Thunderstorms  Icing  Turbulence  Mountain Waves  Volcanic Ashes







- Airport Elevation : 1260 ft
- IATA code : LDE
- Download approach charts


LFBT - Tarbes / Ossun

CURRENT METAR :
  • 191000Z AUTO 06004KT 010V140 9999 FEW023 OVC042 19/12 Q1021 NOSIG

EXPIRED METARs :
  • 190930Z AUTO 07004KT 020V130 9999 FEW022 OVC042 18/13 Q1021 NOSIG
  • 190900Z AUTO 08003KT 040V120 9999 FEW015 SCT025 OVC038 17/14 Q1021 NOSIG
  • 190830Z AUTO 06003KT 010V130 9999 SCT013 BKN020 BKN026 17/14 Q1021 NOSIG
  • 190800Z AUTO 11003KT 070V150 9999 BKN042 OVC048 17/13 Q1021 TEMPO BKN005
  • 190730Z AUTO VRB03KT 9999 OVC050 16/14 Q1021 TEMPO BKN005

TAF TAF LFBT
Valid from the 19 at 06:00 until the 20 at 06:00 UTC


190500Z 1906/2006 VRB03KT 9999 SCT015 BKN025
PROB30
TEMPO 1906/1909 BKN005
TEMPO 1909/1916 06006KT
PROB30
TEMPO 1922/1924 4000 SHRA BKN010 BKN030TCU
BECMG 2000/2002 4000 -RA OVC008
PROB30
TEMPO 2000/2006 2000 RA OVC005 OVC020 SCT060CB
No reported NOTAMs for that airfield.



MET'MAP, your aeronautical weather chart ! - Copyright ORBIFLY December 2007 - Disclaimer

ORBIFLY MET'MAP TEAM :

Programming & Development : Alexandra Zaïnal
Concept & Development : Baudouin d'Aumeries
Co-Development & Prog : Marc-Olivier Méhu
Technical & hardware support : Manuel Goepfert

Contact : metmap@orbifly.com




SOURCES & CREDITS :

   NOAA